sensor_id;sensor_type;location;lat;lon;timestamp;pressure;altitude;pressure_sealevel;temperature;humidity
62592;BME280;48659;41.622;2.276;2023-04-15T00:01:13;99388.39;;;12.67;50.63
62592;BME280;48659;41.622;2.276;2023-04-15T00:03:40;99390.01;;;13.59;49.84
62592;BME280;48659;41.622;2.276;2023-04-15T00:06:09;99383.88;;;14.06;49.05
62592;BME280;48659;41.622;2.276;2023-04-15T00:08:36;99387.02;;;13.12;50.62
62592;BME280;48659;41.622;2.276;2023-04-15T00:11:04;99384.42;;;11.81;53.41
62592;BME280;48659;41.622;2.276;2023-04-15T00:13:31;99382.83;;;12.86;52.51
62592;BME280;48659;41.622;2.276;2023-04-15T00:15:59;99391.88;;;11.25;55.10
62592;BME280;48659;41.622;2.276;2023-04-15T00:18:27;99383.31;;;13.02;50.85
62592;BME280;48659;41.622;2.276;2023-04-15T00:20:55;99389.33;;;10.74;55.84
62592;BME280;48659;41.622;2.276;2023-04-15T00:23:22;99385.76;;;11.86;54.48
62592;BME280;48659;41.622;2.276;2023-04-15T00:25:49;99376.86;;;12.42;53.17
62592;BME280;48659;41.622;2.276;2023-04-15T00:28:17;99375.61;;;12.45;52.95
62592;BME280;48659;41.622;2.276;2023-04-15T00:30:44;99377.28;;;13.01;50.74
62592;BME280;48659;41.622;2.276;2023-04-15T00:33:12;99388.03;;;11.17;54.65
62592;BME280;48659;41.622;2.276;2023-04-15T00:35:39;99375.60;;;12.85;50.53
62592;BME280;48659;41.622;2.276;2023-04-15T00:38:07;99376.38;;;12.58;50.56
62592;BME280;48659;41.622;2.276;2023-04-15T00:40:35;99392.26;;;11.44;55.75
62592;BME280;48659;41.622;2.276;2023-04-15T00:43:03;99387.67;;;11.85;53.70
62592;BME280;48659;41.622;2.276;2023-04-15T00:45:32;99389.78;;;11.32;53.13
62592;BME280;48659;41.622;2.276;2023-04-15T00:47:59;99392.47;;;10.70;56.60
62592;BME280;48659;41.622;2.276;2023-04-15T00:50:26;99398.79;;;11.09;55.93
62592;BME280;48659;41.622;2.276;2023-04-15T00:52:53;99399.58;;;9.76;59.83
62592;BME280;48659;41.622;2.276;2023-04-15T00:55:26;99399.07;;;10.88;57.74
62592;BME280;48659;41.622;2.276;2023-04-15T00:57:53;99400.95;;;10.47;57.23
62592;BME280;48659;41.622;2.276;2023-04-15T01:00:23;99403.42;;;11.16;54.27
62592;BME280;48659;41.622;2.276;2023-04-15T01:02:50;99402.15;;;11.04;54.64
62592;BME280;48659;41.622;2.276;2023-04-15T01:05:18;99392.84;;;12.55;51.12
62592;BME280;48659;41.622;2.276;2023-04-15T01:07:46;99388.68;;;12.25;51.40
62592;BME280;48659;41.622;2.276;2023-04-15T01:10:17;99396.27;;;11.94;52.90
62592;BME280;48659;41.622;2.276;2023-04-15T01:17:17;99401.82;;;9.93;55.99
62592;BME280;48659;41.622;2.276;2023-04-15T01:19:45;99398.91;;;10.45;55.20
62592;BME280;48659;41.622;2.276;2023-04-15T01:22:14;99391.40;;;11.02;53.66
62592;BME280;48659;41.622;2.276;2023-04-15T01:24:50;99387.04;;;11.61;51.17
62592;BME280;48659;41.622;2.276;2023-04-15T01:27:21;99381.42;;;12.52;48.73
62592;BME280;48659;41.622;2.276;2023-04-15T01:29:49;99381.15;;;11.45;50.06
62592;BME280;48659;41.622;2.276;2023-04-15T01:32:17;99387.24;;;10.95;52.33
62592;BME280;48659;41.622;2.276;2023-04-15T01:34:44;99381.07;;;11.80;49.33
62592;BME280;48659;41.622;2.276;2023-04-15T01:37:12;99378.93;;;10.71;52.94
62592;BME280;48659;41.622;2.276;2023-04-15T01:39:39;99377.74;;;10.78;51.70
62592;BME280;48659;41.622;2.276;2023-04-15T01:42:07;99378.70;;;10.68;51.85
62592;BME280;48659;41.622;2.276;2023-04-15T01:44:34;99382.60;;;9.76;53.38
62592;BME280;48659;41.622;2.276;2023-04-15T01:47:01;99377.45;;;10.17;52.63
62592;BME280;48659;41.622;2.276;2023-04-15T01:49:29;99386.55;;;8.77;56.88
62592;BME280;48659;41.622;2.276;2023-04-15T01:51:58;99382.05;;;9.80;54.30
62592;BME280;48659;41.622;2.276;2023-04-15T01:54:26;99387.05;;;9.45;54.66
62592;BME280;48659;41.622;2.276;2023-04-15T01:56:53;99390.01;;;9.67;53.62
62592;BME280;48659;41.622;2.276;2023-04-15T01:59:21;99389.93;;;7.51;58.45
62592;BME280;48659;41.622;2.276;2023-04-15T02:01:48;99387.04;;;8.92;56.88
62592;BME280;48659;41.622;2.276;2023-04-15T02:04:16;99390.66;;;9.75;54.46
62592;BME280;48659;41.622;2.276;2023-04-15T02:06:44;99388.98;;;9.10;54.92
62592;BME280;48659;41.622;2.276;2023-04-15T02:09:11;99387.67;;;8.88;55.16
62592;BME280;48659;41.622;2.276;2023-04-15T02:11:38;99390.48;;;8.95;54.83
62592;BME280;48659;41.622;2.276;2023-04-15T02:14:05;99397.39;;;9.41;53.33
62592;BME280;48659;41.622;2.276;2023-04-15T02:16:33;99398.58;;;7.98;57.20
62592;BME280;48659;41.622;2.276;2023-04-15T02:19:00;99404.34;;;8.56;56.06
62592;BME280;48659;41.622;2.276;2023-04-15T02:21:28;99404.93;;;7.88;56.59
62592;BME280;48659;41.622;2.276;2023-04-15T02:23:56;99406.72;;;9.22;54.21
62592;BME280;48659;41.622;2.276;2023-04-15T02:26:24;99406.39;;;9.48;52.65
62592;BME280;48659;41.622;2.276;2023-04-15T02:28:51;99410.20;;;10.00;51.40
62592;BME280;48659;41.622;2.276;2023-04-15T02:31:19;99406.64;;;10.10;50.11
62592;BME280;48659;41.622;2.276;2023-04-15T02:33:46;99405.52;;;10.21;50.13
62592;BME280;48659;41.622;2.276;2023-04-15T02:36:13;99403.74;;;9.21;52.08
62592;BME280;48659;41.622;2.276;2023-04-15T02:38:40;99405.68;;;9.93;52.43
62592;BME280;48659;41.622;2.276;2023-04-15T02:41:08;99402.68;;;9.95;51.53
62592;BME280;48659;41.622;2.276;2023-04-15T02:43:35;99394.75;;;10.66;49.39
62592;BME280;48659;41.622;2.276;2023-04-15T02:46:08;99398.91;;;10.29;49.74
62592;BME280;48659;41.622;2.276;2023-04-15T02:48:35;99402.39;;;7.48;55.60
62592;BME280;48659;41.622;2.276;2023-04-15T02:51:14;99398.26;;;9.21;50.69
62592;BME280;48659;41.622;2.276;2023-04-15T02:53:41;99398.58;;;11.20;48.32
62592;BME280;48659;41.622;2.276;2023-04-15T02:56:08;99399.65;;;9.43;51.95
62592;BME280;48659;41.622;2.276;2023-04-15T02:58:35;99400.24;;;9.74;51.90
62592;BME280;48659;41.622;2.276;2023-04-15T03:01:02;99395.48;;;10.11;51.25
62592;BME280;48659;41.622;2.276;2023-04-15T03:03:29;99395.43;;;10.67;49.61
62592;BME280;48659;41.622;2.276;2023-04-15T03:05:57;99399.00;;;7.78;54.50
62592;BME280;48659;41.622;2.276;2023-04-15T03:08:25;99403.46;;;6.90;57.96
62592;BME280;48659;41.622;2.276;2023-04-15T03:10:52;99400.87;;;8.04;56.88
62592;BME280;48659;41.622;2.276;2023-04-15T03:13:19;99402.26;;;7.33;58.22
62592;BME280;48659;41.622;2.276;2023-04-15T03:15:47;99394.60;;;9.41;53.44
62592;BME280;48659;41.622;2.276;2023-04-15T03:18:15;99396.16;;;8.79;54.47
62592;BME280;48659;41.622;2.276;2023-04-15T03:20:42;99394.20;;;9.30;51.98
62592;BME280;48659;41.622;2.276;2023-04-15T03:23:10;99393.44;;;10.23;51.15
62592;BME280;48659;41.622;2.276;2023-04-15T03:25:38;99392.94;;;10.35;49.54
62592;BME280;48659;41.622;2.276;2023-04-15T03:28:08;99401.29;;;10.98;48.58
62592;BME280;48659;41.622;2.276;2023-04-15T03:30:35;99407.07;;;11.21;47.30
62592;BME280;48659;41.622;2.276;2023-04-15T03:33:03;99411.26;;;11.39;46.75
62592;BME280;48659;41.622;2.276;2023-04-15T03:35:30;99413.20;;;11.99;45.55
62592;BME280;48659;41.622;2.276;2023-04-15T03:37:57;99410.96;;;11.57;45.30
62592;BME280;48659;41.622;2.276;2023-04-15T03:40:26;99413.46;;;11.16;45.49
62592;BME280;48659;41.622;2.276;2023-04-15T03:42:54;99417.22;;;11.72;45.52
62592;BME280;48659;41.622;2.276;2023-04-15T03:45:35;99420.78;;;10.82;44.23
62592;BME280;48659;41.622;2.276;2023-04-15T03:48:04;99416.17;;;12.50;43.52
62592;BME280;48659;41.622;2.276;2023-04-15T03:50:31;99418.58;;;12.05;44.41
62592;BME280;48659;41.622;2.276;2023-04-15T03:53:01;99418.02;;;12.05;44.50
62592;BME280;48659;41.622;2.276;2023-04-15T03:55:29;99421.99;;;12.07;44.71
62592;BME280;48659;41.622;2.276;2023-04-15T03:57:56;99418.70;;;12.47;44.03
62592;BME280;48659;41.622;2.276;2023-04-15T04:00:23;99421.30;;;12.28;44.32
62592;BME280;48659;41.622;2.276;2023-04-15T04:02:50;99425.83;;;11.81;45.26
62592;BME280;48659;41.622;2.276;2023-04-15T04:05:22;99425.99;;;12.20;45.08
62592;BME280;48659;41.622;2.276;2023-04-15T04:07:49;99423.83;;;11.52;46.22
62592;BME280;48659;41.622;2.276;2023-04-15T04:10:45;99423.35;;;10.45;47.42
62592;BME280;48659;41.622;2.276;2023-04-15T04:13:12;99421.44;;;9.16;51.13
62592;BME280;48659;41.622;2.276;2023-04-15T04:15:40;99419.01;;;8.44;50.91
62592;BME280;48659;41.622;2.276;2023-04-15T04:18:08;99416.10;;;10.92;47.71
62592;BME280;48659;41.622;2.276;2023-04-15T04:20:35;99419.43;;;11.58;45.89
62592;BME280;48659;41.622;2.276;2023-04-15T04:23:02;99422.99;;;9.38;50.53
62592;BME280;48659;41.622;2.276;2023-04-15T04:25:31;99426.22;;;8.47;53.56
62592;BME280;48659;41.622;2.276;2023-04-15T04:27:58;99433.63;;;8.64;54.27
62592;BME280;48659;41.622;2.276;2023-04-15T04:30:25;99431.51;;;10.65;48.72
62592;BME280;48659;41.622;2.276;2023-04-15T04:32:52;99433.04;;;10.94;49.55
62592;BME280;48659;41.622;2.276;2023-04-15T04:35:20;99439.97;;;9.57;51.54
62592;BME280;48659;41.622;2.276;2023-04-15T04:37:48;99440.52;;;10.84;50.26
62592;BME280;48659;41.622;2.276;2023-04-15T04:40:15;99447.05;;;9.42;53.15
62592;BME280;48659;41.622;2.276;2023-04-15T04:42:43;99442.39;;;10.94;50.70
62592;BME280;48659;41.622;2.276;2023-04-15T04:45:15;99447.34;;;9.36;53.31
62592;BME280;48659;41.622;2.276;2023-04-15T04:47:42;99446.69;;;10.20;52.19
62592;BME280;48659;41.622;2.276;2023-04-15T04:50:09;99451.20;;;8.95;54.03
62592;BME280;48659;41.622;2.276;2023-04-15T04:52:39;99456.26;;;7.43;58.15
62592;BME280;48659;41.622;2.276;2023-04-15T04:55:07;99451.39;;;8.36;57.21
62592;BME280;48659;41.622;2.276;2023-04-15T04:57:35;99441.99;;;9.73;53.86
62592;BME280;48659;41.622;2.276;2023-04-15T05:00:04;99438.52;;;9.51;54.93
62592;BME280;48659;41.622;2.276;2023-04-15T05:02:32;99436.70;;;9.20;55.45
62592;BME280;48659;41.622;2.276;2023-04-15T05:05:00;99435.40;;;10.41;52.22
62592;BME280;48659;41.622;2.276;2023-04-15T05:07:27;99438.35;;;8.71;55.11
62592;BME280;48659;41.622;2.276;2023-04-15T05:09:55;99441.47;;;8.73;56.73
62592;BME280;48659;41.622;2.276;2023-04-15T05:12:23;99442.10;;;8.75;56.02
62592;BME280;48659;41.622;2.276;2023-04-15T05:14:50;99448.27;;;9.24;56.67
62592;BME280;48659;41.622;2.276;2023-04-15T05:17:18;99446.10;;;8.70;59.12
62592;BME280;48659;41.622;2.276;2023-04-15T05:19:45;99454.40;;;6.90;63.80
62592;BME280;48659;41.622;2.276;2023-04-15T05:22:12;99457.20;;;8.20;60.83
62592;BME280;48659;41.622;2.276;2023-04-15T05:24:39;99449.78;;;8.88;59.23
62592;BME280;48659;41.622;2.276;2023-04-15T05:27:10;99448.53;;;9.61;55.62
62592;BME280;48659;41.622;2.276;2023-04-15T05:29:38;99444.04;;;10.84;53.05
62592;BME280;48659;41.622;2.276;2023-04-15T05:32:06;99448.19;;;11.00;51.21
62592;BME280;48659;41.622;2.276;2023-04-15T05:34:35;99451.16;;;10.95;50.38
62592;BME280;48659;41.622;2.276;2023-04-15T05:37:02;99445.03;;;11.02;51.07
62592;BME280;48659;41.622;2.276;2023-04-15T05:39:30;99445.01;;;10.94;50.17
62592;BME280;48659;41.622;2.276;2023-04-15T05:41:57;99453.91;;;10.41;50.90
62592;BME280;48659;41.622;2.276;2023-04-15T05:44:24;99461.32;;;9.05;53.33
62592;BME280;48659;41.622;2.276;2023-04-15T05:46:52;99460.50;;;10.49;51.38
62592;BME280;48659;41.622;2.276;2023-04-15T05:49:20;99459.77;;;11.61;48.40
62592;BME280;48659;41.622;2.276;2023-04-15T05:51:48;99463.22;;;11.86;47.40
62592;BME280;48659;41.622;2.276;2023-04-15T05:54:15;99462.90;;;12.32;47.05
62592;BME280;48659;41.622;2.276;2023-04-15T05:56:43;99460.89;;;12.74;46.81
62592;BME280;48659;41.622;2.276;2023-04-15T05:59:11;99466.54;;;12.30;46.64
62592;BME280;48659;41.622;2.276;2023-04-15T06:01:39;99475.02;;;12.19;46.84
62592;BME280;48659;41.622;2.276;2023-04-15T06:04:07;99469.09;;;12.48;45.97
62592;BME280;48659;41.622;2.276;2023-04-15T06:06:34;99467.02;;;13.07;44.63
62592;BME280;48659;41.622;2.276;2023-04-15T06:09:02;99472.44;;;12.76;45.11
62592;BME280;48659;41.622;2.276;2023-04-15T06:11:29;99480.52;;;12.21;45.72
62592;BME280;48659;41.622;2.276;2023-04-15T06:13:57;99476.79;;;13.01;43.83
62592;BME280;48659;41.622;2.276;2023-04-15T06:16:25;99486.23;;;11.19;46.77
62592;BME280;48659;41.622;2.276;2023-04-15T06:18:52;99490.73;;;10.25;49.08
62592;BME280;48659;41.622;2.276;2023-04-15T06:21:19;99496.30;;;9.62;52.16
62592;BME280;48659;41.622;2.276;2023-04-15T06:23:46;99496.36;;;10.61;50.41
62592;BME280;48659;41.622;2.276;2023-04-15T06:26:14;99498.52;;;12.35;46.87
62592;BME280;48659;41.622;2.276;2023-04-15T06:28:42;99502.88;;;11.50;48.45
62592;BME280;48659;41.622;2.276;2023-04-15T06:31:09;99507.24;;;11.86;48.07
62592;BME280;48659;41.622;2.276;2023-04-15T06:33:37;99509.12;;;12.67;46.19
62592;BME280;48659;41.622;2.276;2023-04-15T06:36:04;99505.63;;;12.82;45.88
62592;BME280;48659;41.622;2.276;2023-04-15T06:38:34;99507.49;;;13.68;44.64
62592;BME280;48659;41.622;2.276;2023-04-15T06:41:02;99511.85;;;14.23;43.34
62592;BME280;48659;41.622;2.276;2023-04-15T06:43:30;99510.55;;;14.46;43.76
62592;BME280;48659;41.622;2.276;2023-04-15T06:45:58;99507.75;;;14.21;43.36
62592;BME280;48659;41.622;2.276;2023-04-15T06:48:25;99501.43;;;14.73;42.30
62592;BME280;48659;41.622;2.276;2023-04-15T06:50:52;99505.73;;;14.81;42.11
62592;BME280;48659;41.622;2.276;2023-04-15T06:53:20;99506.73;;;15.44;41.28
62592;BME280;48659;41.622;2.276;2023-04-15T06:55:47;99510.92;;;15.60;41.51
62592;BME280;48659;41.622;2.276;2023-04-15T06:58:14;99509.66;;;16.00;40.65
62592;BME280;48659;41.622;2.276;2023-04-15T07:00:41;99516.23;;;16.22;39.75
62592;BME280;48659;41.622;2.276;2023-04-15T07:03:11;99516.42;;;14.36;43.52
62592;BME280;48659;41.622;2.276;2023-04-15T07:05:39;99515.55;;;15.08;42.85
62592;BME280;48659;41.622;2.276;2023-04-15T07:08:06;99508.33;;;15.64;41.63
62592;BME280;48659;41.622;2.276;2023-04-15T07:10:34;99503.42;;;16.60;40.21
62592;BME280;48659;41.622;2.276;2023-04-15T07:13:02;99500.70;;;14.49;41.92
62592;BME280;48659;41.622;2.276;2023-04-15T07:15:29;99498.02;;;14.01;42.11
62592;BME280;48659;41.622;2.276;2023-04-15T07:17:57;99492.13;;;14.04;42.01
62592;BME280;48659;41.622;2.276;2023-04-15T07:20:27;99504.99;;;11.16;42.37
62592;BME280;48659;41.622;2.276;2023-04-15T07:22:55;99505.48;;;11.69;43.82
62592;BME280;48659;41.622;2.276;2023-04-15T07:25:22;99516.03;;;11.60;46.72
62592;BME280;48659;41.622;2.276;2023-04-15T07:27:49;99519.86;;;12.26;46.00
62592;BME280;48659;41.622;2.276;2023-04-15T07:30:17;99511.95;;;13.35;43.05
62592;BME280;48659;41.622;2.276;2023-04-15T07:32:44;99513.81;;;12.83;43.34
62592;BME280;48659;41.622;2.276;2023-04-15T07:35:12;99519.65;;;12.19;44.12
62592;BME280;48659;41.622;2.276;2023-04-15T07:37:39;99515.32;;;13.50;40.39
62592;BME280;48659;41.622;2.276;2023-04-15T07:40:09;99516.53;;;13.26;41.41
62592;BME280;48659;41.622;2.276;2023-04-15T07:42:37;99534.99;;;12.86;39.98
62592;BME280;48659;41.622;2.276;2023-04-15T07:45:06;99531.71;;;11.34;43.33
62592;BME280;48659;41.622;2.276;2023-04-15T07:47:34;99524.86;;;11.84;42.48
62592;BME280;48659;41.622;2.276;2023-04-15T07:50:01;99524.39;;;12.09;41.49
62592;BME280;48659;41.622;2.276;2023-04-15T07:52:29;99524.82;;;10.98;42.49
62592;BME280;48659;41.622;2.276;2023-04-15T07:54:57;99518.58;;;11.75;42.49
62592;BME280;48659;41.622;2.276;2023-04-15T07:57:24;99516.22;;;11.62;42.95
62592;BME280;48659;41.622;2.276;2023-04-15T07:59:51;99516.72;;;11.95;42.52
62592;BME280;48659;41.622;2.276;2023-04-15T08:02:19;99511.02;;;14.21;39.52
62592;BME280;48659;41.622;2.276;2023-04-15T08:04:46;99514.84;;;13.34;40.18
62592;BME280;48659;41.622;2.276;2023-04-15T08:07:13;99530.23;;;12.37;41.18
62592;BME280;48659;41.622;2.276;2023-04-15T08:09:41;99521.81;;;13.92;38.74
62592;BME280;48659;41.622;2.276;2023-04-15T08:12:10;99526.40;;;12.70;39.81
62592;BME280;48659;41.622;2.276;2023-04-15T08:14:38;99519.00;;;13.46;39.20
62592;BME280;48659;41.622;2.276;2023-04-15T08:17:05;99524.92;;;14.25;36.42
62592;BME280;48659;41.622;2.276;2023-04-15T08:19:33;99521.44;;;13.45;37.95
62592;BME280;48659;41.622;2.276;2023-04-15T08:22:01;99523.92;;;13.49;37.52
62592;BME280;48659;41.622;2.276;2023-04-15T08:24:30;99517.15;;;12.59;38.63
62592;BME280;48659;41.622;2.276;2023-04-15T08:26:57;99516.41;;;12.87;39.57
62592;BME280;48659;41.622;2.276;2023-04-15T08:29:25;99513.84;;;13.12;37.71
62592;BME280;48659;41.622;2.276;2023-04-15T08:31:53;99513.65;;;13.73;37.46
62592;BME280;48659;41.622;2.276;2023-04-15T08:34:20;99515.53;;;13.78;37.04
62592;BME280;48659;41.622;2.276;2023-04-15T08:36:48;99511.46;;;13.51;37.30
62592;BME280;48659;41.622;2.276;2023-04-15T08:39:18;99509.88;;;14.34;35.49
62592;BME280;48659;41.622;2.276;2023-04-15T08:41:48;99502.87;;;15.22;33.63
62592;BME280;48659;41.622;2.276;2023-04-15T08:44:19;99502.94;;;16.21;32.20
62592;BME280;48659;41.622;2.276;2023-04-15T08:46:48;99504.89;;;16.29;32.05
62592;BME280;48659;41.622;2.276;2023-04-15T08:49:17;99502.32;;;14.44;34.62
62592;BME280;48659;41.622;2.276;2023-04-15T08:51:44;99498.54;;;15.21;33.51
62592;BME280;48659;41.622;2.276;2023-04-15T08:54:12;99503.89;;;15.11;33.28
62592;BME280;48659;41.622;2.276;2023-04-15T08:56:41;99500.83;;;16.99;31.06
62592;BME280;48659;41.622;2.276;2023-04-15T08:59:08;99502.18;;;16.73;31.51
62592;BME280;48659;41.622;2.276;2023-04-15T09:01:37;99505.86;;;15.62;32.69
62592;BME280;48659;41.622;2.276;2023-04-15T09:04:06;99506.64;;;14.70;34.72
62592;BME280;48659;41.622;2.276;2023-04-15T09:06:36;99510.07;;;14.76;34.59
62592;BME280;48659;41.622;2.276;2023-04-15T09:09:06;99510.29;;;14.10;35.99
62592;BME280;48659;41.622;2.276;2023-04-15T09:11:34;99502.10;;;15.31;34.10
62592;BME280;48659;41.622;2.276;2023-04-15T09:14:02;99495.39;;;17.19;31.04
62592;BME280;48659;41.622;2.276;2023-04-15T09:16:30;99504.95;;;15.04;32.68
62592;BME280;48659;41.622;2.276;2023-04-15T09:18:57;99498.39;;;16.61;31.43
62592;BME280;48659;41.622;2.276;2023-04-15T09:21:25;99493.21;;;17.23;30.09
62592;BME280;48659;41.622;2.276;2023-04-15T09:23:55;99497.45;;;17.95;29.31
62592;BME280;48659;41.622;2.276;2023-04-15T09:26:34;99484.98;;;19.11;28.00
62592;BME280;48659;41.622;2.276;2023-04-15T09:29:05;99476.57;;;19.59;27.71
62592;BME280;48659;41.622;2.276;2023-04-15T09:31:34;99482.67;;;16.34;30.53
62592;BME280;48659;41.622;2.276;2023-04-15T09:34:02;99479.47;;;15.79;31.48
62592;BME280;48659;41.622;2.276;2023-04-15T09:36:50;99474.32;;;16.77;30.18
62592;BME280;48659;41.622;2.276;2023-04-15T09:39:18;99480.12;;;15.38;32.77
62592;BME280;48659;41.622;2.276;2023-04-15T09:42:03;99479.51;;;16.19;31.72
62592;BME280;48659;41.622;2.276;2023-04-15T09:44:30;99476.32;;;14.95;33.52
62592;BME280;48659;41.622;2.276;2023-04-15T09:46:57;99477.67;;;15.91;32.17
62592;BME280;48659;41.622;2.276;2023-04-15T09:49:25;99485.77;;;16.17;31.22
62592;BME280;48659;41.622;2.276;2023-04-15T09:51:58;99476.85;;;17.08;31.04
62592;BME280;48659;41.622;2.276;2023-04-15T09:54:34;99466.47;;;18.01;29.23
62592;BME280;48659;41.622;2.276;2023-04-15T09:57:06;99477.96;;;16.43;30.52
62592;BME280;48659;41.622;2.276;2023-04-15T09:59:33;99467.93;;;17.36;29.93
62592;BME280;48659;41.622;2.276;2023-04-15T10:02:03;99475.51;;;17.61;29.42
62592;BME280;48659;41.622;2.276;2023-04-15T10:04:35;99474.34;;;17.17;29.51
62592;BME280;48659;41.622;2.276;2023-04-15T10:07:05;99471.29;;;16.85;29.49
62592;BME280;48659;41.622;2.276;2023-04-15T10:09:35;99470.96;;;16.42;30.19
62592;BME280;48659;41.622;2.276;2023-04-15T10:12:04;99466.80;;;17.07;30.13
62592;BME280;48659;41.622;2.276;2023-04-15T10:14:34;99468.80;;;18.36;28.17
62592;BME280;48659;41.622;2.276;2023-04-15T10:17:04;99478.85;;;16.44;29.70
62592;BME280;48659;41.622;2.276;2023-04-15T10:19:35;99467.09;;;17.18;29.33
62592;BME280;48659;41.622;2.276;2023-04-15T10:22:03;99456.91;;;18.96;27.31
62592;BME280;48659;41.622;2.276;2023-04-15T10:24:32;99446.26;;;18.32;26.97
62592;BME280;48659;41.622;2.276;2023-04-15T10:27:00;99450.59;;;18.23;27.52
62592;BME280;48659;41.622;2.276;2023-04-15T10:29:29;99447.27;;;16.38;29.43
62592;BME280;48659;41.622;2.276;2023-04-15T10:31:58;99439.73;;;17.92;28.24
62592;BME280;48659;41.622;2.276;2023-04-15T10:34:26;99433.09;;;16.80;29.80
62592;BME280;48659;41.622;2.276;2023-04-15T10:36:55;99429.48;;;17.42;28.69
62592;BME280;48659;41.622;2.276;2023-04-15T10:39:39;99434.35;;;16.76;28.85
62592;BME280;48659;41.622;2.276;2023-04-15T10:42:08;99445.66;;;16.59;29.76
62592;BME280;48659;41.622;2.276;2023-04-15T10:44:36;99435.91;;;17.09;29.16
62592;BME280;48659;41.622;2.276;2023-04-15T10:47:09;99428.13;;;18.23;27.86
62592;BME280;48659;41.622;2.276;2023-04-15T10:49:43;99430.21;;;18.09;27.37
62592;BME280;48659;41.622;2.276;2023-04-15T10:52:10;99427.36;;;18.53;27.24
62592;BME280;48659;41.622;2.276;2023-04-15T10:54:38;99434.99;;;17.85;28.14
62592;BME280;48659;41.622;2.276;2023-04-15T10:57:08;99429.56;;;18.85;27.20
62592;BME280;48659;41.622;2.276;2023-04-15T10:59:38;99421.71;;;19.92;25.47
62592;BME280;48659;41.622;2.276;2023-04-15T11:02:38;99413.75;;;21.18;23.87
62592;BME280;48659;41.622;2.276;2023-04-15T11:05:07;99413.97;;;18.57;26.15
62592;BME280;48659;41.622;2.276;2023-04-15T11:07:38;99400.63;;;19.57;25.19
62592;BME280;48659;41.622;2.276;2023-04-15T11:12:04;99410.57;;;20.04;24.76
62592;BME280;48659;41.622;2.276;2023-04-15T11:14:32;99406.14;;;19.86;25.93
62592;BME280;48659;41.622;2.276;2023-04-15T11:17:00;99393.42;;;19.73;26.07
62592;BME280;48659;41.622;2.276;2023-04-15T11:19:35;99385.64;;;20.74;24.98
62592;BME280;48659;41.622;2.276;2023-04-15T11:22:07;99385.55;;;18.96;26.55
62592;BME280;48659;41.622;2.276;2023-04-15T11:24:35;99372.18;;;20.17;25.65
62592;BME280;48659;41.622;2.276;2023-04-15T11:27:02;99363.22;;;21.03;24.73
62592;BME280;48659;41.622;2.276;2023-04-15T11:29:30;99363.07;;;20.41;24.68
62592;BME280;48659;41.622;2.276;2023-04-15T11:32:07;99354.87;;;21.10;23.90
62592;BME280;48659;41.622;2.276;2023-04-15T11:34:35;99355.60;;;20.94;25.35
62592;BME280;48659;41.622;2.276;2023-04-15T11:37:04;99352.24;;;20.27;25.21
62592;BME280;48659;41.622;2.276;2023-04-15T11:39:31;99352.88;;;21.01;24.46
62592;BME280;48659;41.622;2.276;2023-04-15T11:41:58;99355.06;;;19.75;25.72
62592;BME280;48659;41.622;2.276;2023-04-15T11:44:25;99356.02;;;18.53;27.10
62592;BME280;48659;41.622;2.276;2023-04-15T11:46:54;99350.71;;;20.01;26.08
62592;BME280;48659;41.622;2.276;2023-04-15T11:49:29;99344.73;;;20.78;25.30
62592;BME280;48659;41.622;2.276;2023-04-15T11:51:57;99344.27;;;20.52;28.10
62592;BME280;48659;41.622;2.276;2023-04-15T11:54:24;99347.49;;;19.06;30.51
62592;BME280;48659;41.622;2.276;2023-04-15T11:56:51;99345.92;;;18.55;32.28
62592;BME280;48659;41.622;2.276;2023-04-15T11:59:19;99344.25;;;18.96;32.82
62592;BME280;48659;41.622;2.276;2023-04-15T12:01:47;99357.22;;;17.45;34.91
62592;BME280;48659;41.622;2.276;2023-04-15T12:04:17;99361.83;;;19.66;32.16
62592;BME280;48659;41.622;2.276;2023-04-15T12:06:45;99355.87;;;19.64;32.00
62592;BME280;48659;41.622;2.276;2023-04-15T12:09:13;99348.01;;;18.66;34.24
62592;BME280;48659;41.622;2.276;2023-04-15T12:11:44;99346.24;;;17.32;35.97
62592;BME280;48659;41.622;2.276;2023-04-15T12:14:15;99352.38;;;17.42;35.30
62592;BME280;48659;41.622;2.276;2023-04-15T12:16:44;99351.93;;;18.06;34.56
62592;BME280;48659;41.622;2.276;2023-04-15T12:19:14;99341.14;;;17.96;33.67
62592;BME280;48659;41.622;2.276;2023-04-15T12:21:45;99340.93;;;18.69;31.97
62592;BME280;48659;41.622;2.276;2023-04-15T12:24:12;99336.33;;;18.34;32.38
62592;BME280;48659;41.622;2.276;2023-04-15T12:26:44;99333.13;;;17.86;32.59
62592;BME280;48659;41.622;2.276;2023-04-15T12:29:13;99336.91;;;17.91;34.06
62592;BME280;48659;41.622;2.276;2023-04-15T12:31:49;99332.26;;;17.98;32.87
62592;BME280;48659;41.622;2.276;2023-04-15T12:34:24;99324.98;;;18.54;32.22
62592;BME280;48659;41.622;2.276;2023-04-15T12:36:52;99331.59;;;18.97;33.29
62592;BME280;48659;41.622;2.276;2023-04-15T12:39:21;99331.64;;;18.55;35.34
62592;BME280;48659;41.622;2.276;2023-04-15T12:41:49;99337.67;;;17.95;35.63
62592;BME280;48659;41.622;2.276;2023-04-15T12:44:16;99340.91;;;18.25;35.88
62592;BME280;48659;41.622;2.276;2023-04-15T12:46:43;99345.30;;;17.84;37.84
62592;BME280;48659;41.622;2.276;2023-04-15T12:49:11;99355.41;;;17.44;39.79
62592;BME280;48659;41.622;2.276;2023-04-15T12:51:39;99361.74;;;17.26;40.34
62592;BME280;48659;41.622;2.276;2023-04-15T12:54:06;99367.18;;;17.65;39.73
62592;BME280;48659;41.622;2.276;2023-04-15T12:56:34;99360.60;;;17.18;41.10
62592;BME280;48659;41.622;2.276;2023-04-15T12:59:01;99370.81;;;16.63;42.35
62592;BME280;48659;41.622;2.276;2023-04-15T13:01:30;99378.73;;;17.00;41.96
62592;BME280;48659;41.622;2.276;2023-04-15T13:03:57;99378.43;;;17.11;42.10
62592;BME280;48659;41.622;2.276;2023-04-15T13:06:24;99380.72;;;17.19;41.57
62592;BME280;48659;41.622;2.276;2023-04-15T13:08:51;99384.43;;;17.00;41.79
62592;BME280;48659;41.622;2.276;2023-04-15T13:11:19;99381.40;;;17.19;40.59
62592;BME280;48659;41.622;2.276;2023-04-15T13:13:46;99375.29;;;16.87;41.07
62592;BME280;48659;41.622;2.276;2023-04-15T13:16:14;99370.06;;;16.74;40.44